Terminal Aerodrome Forecast
Issued by NWS Dodge City, KS

Home | Current Version | Previous Version | Text Only | Print | Product List | Glossary On
Versions: 1 2 3 4 5 6 7 8 9 10 11 12 13 14 15 16 17 18 19 20 21 22 23 24 25 26 27 28 29 30 31 32 33 34
000
FTUS43 KDDC 221332 AAB
TAFDDC
TAF AMD
KDDC 221332Z 2214/2312 16020G30KT 5SM BR OVC003
     FM221700 17020G30KT P6SM OVC008
     FM221800 17025G35KT P6SM BKN010
     FM222100 17025G35KT P6SM SCT030
     FM230200 16015G25KT P6SM VCTS SCT040CB
     FM230500 16015G25KT P6SM OVC010=

USA.gov is the U.S. government's official web portal to all federal, state and local government web resources and services.